메인 페이지
METAR-TAF:

METAR-TAF

공항 :

콜초보 공항

예카테린부르크, 러시아

위도: 56-50N, 경도: 060-38E, 고도: 237m

현재 날씨관측

예보는 35분 전, 10:00시(UTC)에 발표되었습니다.
서남서10kt
온도 -2°C
습도 80%
기압 1036 hPa
시정 10km 이상
고도 1600ft 상공 구름 많음
고도 4000ft 상공 흐림

METAR: USSS 161000Z 25005MPS 9999 BKN016 OVC040 M02/M05 Q1036 R26R/150050 NOSIG RMK QFE756/1008

시각: 15:35 (10:35 UTC)

예보

예보는 2 시간 35분 전, 08:00시(UTC)에 발표되었습니다.
예보 대상 시간: 16일 09시부터 17일 09시까지 (UTC)
서남서8kt, 순간 최대 풍속 25kt
시정 10km 이상
고도 1100ft 상공 구름 많음, 적란운.
약한소낙눈
확률 40% :
일시적
16일 09시부터 16일 15시까지 (UTC)
(약한) 결빙, 비
전환 중
16일 18시부터 16일 20시까지 (UTC)
10kt, 순간 최대 풍속 35kt
시정: 3100m
약한소낙눈

TAF: USSS 160800Z 1609/1709 24004G13MPS 9999 -SHSN BKN011CB PROB40 TEMPO 1609/1615 -FZRA BECMG 1618/1620 27005G18MPS 3100 -SHSN

4,000개 이상의 공항 관측 자료 및 예보 (METAR 및 TAF 보고).

지도상에서 검색 가능한 기상관측소가 노란 점과 빨간 점으로 표시되어 있습니다.

기상관측소 명을 보려면 표시 위로 마우스를 이동하세요.

날씨 관측과 예보를 보려면 클릭하세요.

지도 변경 : 확대하려면 엑스 표시가 있는 녹색 버튼, 축소하려면 빼기 표시가 있는 녹색 버튼, 다음 페이지의 지도를 보려면 녹색 화살표를 클릭하세요.


METAR-TAF: